Time;durP1;ratioP1;P1;durP2;ratioP2;P2;SDS_P1;SDS_P2;PMS_P1;PMS_P2;Temp;Humidity;BMP_temperature;BMP_pressure;BME280_temperature;BME280_humidity;BME280_pressure;Samples;Min_cycle;Max_cycle;Signal;HPM_P1;HPM_P2
2023/12/10 00:00:35;;;;;;;0.35;0.35;;;;;;;7.35;100.00;97916.00;5087905;28;20043;-58
2023/12/10 00:03:02;;;;;;;0.20;0.20;;;;;;;7.34;100.00;97906.41;5092397;28;20051;-59
2023/12/10 00:05:29;;;;;;;0.30;0.30;;;;;;;7.43;100.00;97909.38;5093891;28;20441;-59
2023/12/10 00:08:00;;;;;;;0.30;0.30;;;;;;;7.43;100.00;97904.06;5098514;28;20413;-58
2023/12/10 00:10:27;;;;;;;0.30;0.30;;;;;;;7.42;100.00;97912.31;5094367;28;20070;-58
2023/12/10 00:12:54;;;;;;;0.30;0.30;;;;;;;7.48;100.00;97921.97;5090753;28;20079;-58
2023/12/10 00:15:23;;;;;;;0.40;0.40;;;;;;;7.51;100.00;97919.63;5087988;28;20041;-58
2023/12/10 00:17:50;;;;;;;0.20;0.20;;;;;;;7.51;100.00;97922.28;5091157;28;20043;-59
2023/12/10 00:20:17;;;;;;;0.40;0.40;;;;;;;7.51;100.00;97935.59;5085190;28;20151;-58
2023/12/10 00:22:46;;;;;;;0.35;0.35;;;;;;;7.46;100.00;97932.91;5093385;28;20058;-58
2023/12/10 00:25:14;;;;;;;0.40;0.40;;;;;;;7.51;100.00;97929.44;5091457;28;20070;-58
2023/12/10 00:27:42;;;;;;;0.30;0.30;;;;;;;7.37;100.00;97939.75;5092728;28;20032;-59
2023/12/10 00:30:10;;;;;;;0.30;0.30;;;;;;;7.33;100.00;97935.97;5085039;28;20545;-59
2023/12/10 00:32:37;;;;;;;0.30;0.30;;;;;;;7.31;100.00;97949.56;5097032;28;20660;-59
2023/12/10 00:35:06;;;;;;;0.30;0.30;;;;;;;7.29;100.00;97959.66;5092702;28;20060;-58
2023/12/10 00:37:33;;;;;;;0.20;0.20;;;;;;;7.35;100.00;97965.84;5092976;28;20028;-58
2023/12/10 00:40:00;;;;;;;0.30;0.30;;;;;;;7.37;100.00;97982.38;5089876;28;20383;-58
2023/12/10 00:42:29;;;;;;;0.30;0.30;;;;;;;7.30;100.00;97976.44;5092127;28;20163;-58
2023/12/10 00:44:56;;;;;;;0.30;0.30;;;;;;;7.30;100.00;97971.13;5090773;28;20047;-58
2023/12/10 00:47:23;;;;;;;0.30;0.30;;;;;;;7.46;100.00;97966.72;5094616;28;20120;-59
2023/12/10 00:49:50;;;;;;;0.30;0.30;;;;;;;7.42;100.00;97974.44;5087481;28;20143;-59
2023/12/10 00:52:17;;;;;;;0.40;0.40;;;;;;;7.45;100.00;97968.59;5099253;28;20105;-58
2023/12/10 00:54:44;;;;;;;0.32;0.32;;;;;;;7.48;100.00;97983.28;5114586;27;20043;-59
2023/12/10 00:57:12;;;;;;;0.40;0.40;;;;;;;7.39;100.00;97992.78;5094852;28;20070;-58
2023/12/10 00:59:41;;;;;;;0.30;0.30;;;;;;;7.44;100.00;98000.81;5089077;28;20096;-58
2023/12/10 01:02:08;;;;;;;0.30;0.30;;;;;;;7.55;100.00;98016.69;5097229;28;20048;-58
2023/12/10 01:04:36;;;;;;;0.35;0.35;;;;;;;7.68;100.00;98020.00;5094677;28;20075;-58
2023/12/10 01:07:03;;;;;;;0.30;0.30;;;;;;;7.56;100.00;98047.63;5096377;28;20039;-58
2023/12/10 01:09:32;;;;;;;0.40;0.40;;;;;;;7.28;100.00;98046.00;5107147;27;20078;-58
2023/12/10 01:11:59;;;;;;;0.20;0.20;;;;;;;6.83;100.00;98054.25;5095073;28;20331;-58
2023/12/10 01:14:26;;;;;;;0.30;0.30;;;;;;;6.85;100.00;98055.59;5095881;28;20136;-58
2023/12/10 01:16:54;;;;;;;0.30;0.30;;;;;;;6.77;100.00;98052.56;5091260;28;20538;-58
2023/12/10 01:19:22;;;;;;;0.40;0.40;;;;;;;6.70;100.00;98053.53;5097466;28;20670;-58
2023/12/10 01:21:49;;;;;;;0.30;0.30;;;;;;;6.67;100.00;98064.69;5095750;28;20094;-58
2023/12/10 01:24:17;;;;;;;0.40;0.40;;;;;;;6.59;100.00;98073.09;5102786;28;20515;-58
2023/12/10 01:26:44;;;;;;;0.30;0.30;;;;;;;6.74;100.00;98075.19;5098039;28;20180;-58
2023/12/10 01:29:11;;;;;;;0.30;0.30;;;;;;;6.68;100.00;98082.28;5090890;28;20040;-58
2023/12/10 01:31:39;;;;;;;0.40;0.40;;;;;;;6.73;100.00;98088.72;5096715;28;20047;-58
2023/12/10 01:34:07;;;;;;;0.40;0.40;;;;;;;6.69;100.00;98093.75;5094326;28;20039;-59
2023/12/10 01:36:35;;;;;;;0.30;0.30;;;;;;;6.67;100.00;98086.00;5091363;28;20075;-59
2023/12/10 01:39:03;;;;;;;0.40;0.40;;;;;;;6.67;100.00;98091.31;5092388;28;20042;-58
2023/12/10 01:41:30;;;;;;;0.30;0.30;;;;;;;6.65;100.00;98093.41;5095787;28;20044;-59
2023/12/10 01:43:57;;;;;;;0.30;0.30;;;;;;;6.57;100.00;98093.84;5095393;28;20051;-59
2023/12/10 01:46:24;;;;;;;0.47;0.47;;;;;;;6.38;100.00;98103.91;5099485;28;20097;-59
2023/12/10 01:48:51;;;;;;;0.40;0.40;;;;;;;6.32;100.00;98109.44;5092870;28;20043;-58
2023/12/10 01:51:20;;;;;;;0.30;0.30;;;;;;;6.31;100.00;98113.13;5113422;27;20571;-59
2023/12/10 01:53:47;;;;;;;0.50;0.50;;;;;;;6.32;100.00;98114.75;5098095;28;20419;-59
2023/12/10 01:56:16;;;;;;;0.20;0.20;;;;;;;6.79;100.00;98109.03;5100694;28;20105;-58
2023/12/10 01:58:43;;;;;;;0.30;0.30;;;;;;;7.04;100.00;98109.41;5095660;28;20047;-58
2023/12/10 02:01:10;;;;;;;0.40;0.40;;;;;;;7.12;100.00;98122.28;5089424;28;21778;-58
2023/12/10 02:03:37;;;;;;;0.30;0.30;;;;;;;7.17;100.00;98118.88;5096561;28;20089;-59
2023/12/10 02:06:05;;;;;;;0.32;0.32;;;;;;;7.09;100.00;98133.44;5088880;28;20066;-59
2023/12/10 02:08:33;;;;;;;0.40;0.40;;;;;;;7.06;100.00;98130.44;5097677;28;20492;-59
2023/12/10 02:11:01;;;;;;;0.30;0.30;;;;;;;7.12;100.00;98135.63;5099619;28;20052;-58
2023/12/10 02:13:28;;;;;;;0.40;0.40;;;;;;;7.26;100.00;98137.91;5090821;28;20135;-59
2023/12/10 02:15:55;;;;;;;0.20;0.20;;;;;;;7.07;100.00;98148.88;5090643;28;20597;-59
2023/12/10 02:18:22;;;;;;;0.30;0.30;;;;;;;7.01;100.00;98149.84;5094020;28;20048;-59
2023/12/10 02:20:50;;;;;;;0.30;0.30;;;;;;;7.00;100.00;98137.59;5091610;28;20399;-59
2023/12/10 02:23:22;;;;;;;0.40;0.40;;;;;;;7.13;100.00;98139.88;5091129;28;20639;-58
2023/12/10 02:25:51;;;;;;;0.20;0.20;;;;;;;7.21;100.00;98137.84;5095926;28;20043;-58
2023/12/10 02:28:22;;;;;;;0.22;0.22;;;;;;;7.11;100.00;98136.69;5092771;28;20582;-59
2023/12/10 02:30:49;;;;;;;0.38;0.38;;;;;;;7.06;100.00;98144.59;5095870;28;20048;-58
2023/12/10 02:33:16;;;;;;;0.20;0.20;;;;;;;7.21;100.00;98143.97;5094892;28;20812;-58
2023/12/10 02:35:43;;;;;;;0.40;0.40;;;;;;;7.12;100.00;98145.47;5088399;28;20089;-58
2023/12/10 02:38:10;;;;;;;0.40;0.40;;;;;;;7.10;100.00;98151.03;5097021;28;20293;-59
2023/12/10 02:40:37;;;;;;;0.30;0.30;;;;;;;7.08;100.00;98150.47;5098563;28;20586;-58
2023/12/10 02:43:05;;;;;;;0.30;0.30;;;;;;;6.99;100.00;98157.28;5090295;28;20074;-59
2023/12/10 02:45:37;;;;;;;0.30;0.30;;;;;;;7.05;100.00;98153.63;5091512;28;20081;-58
2023/12/10 02:48:05;;;;;;;0.30;0.30;;;;;;;7.08;100.00;98155.81;5091214;28;20340;-59
2023/12/10 02:50:32;;;;;;;0.30;0.30;;;;;;;7.08;100.00;98153.13;5087619;28;20067;-58
2023/12/10 02:53:02;;;;;;;0.38;0.38;;;;;;;7.12;100.00;98161.47;5095398;28;20124;-59
2023/12/10 02:55:29;;;;;;;0.30;0.30;;;;;;;7.16;100.00;98161.75;5097308;28;20554;-59
2023/12/10 02:57:56;;;;;;;0.40;0.40;;;;;;;7.31;100.00;98164.63;5098135;27;20437;-58
2023/12/10 03:00:25;;;;;;;0.30;0.30;;;;;;;7.25;100.00;98173.63;5093728;28;20052;-59
2023/12/10 03:02:52;;;;;;;0.30;0.30;;;;;;;7.33;100.00;98167.84;5091478;28;20039;-58
2023/12/10 03:05:19;;;;;;;0.35;0.35;;;;;;;7.37;100.00;98173.50;5104274;27;20079;-59
2023/12/10 03:07:46;;;;;;;0.47;0.47;;;;;;;7.43;100.00;98183.19;5086187;28;20112;-58
2023/12/10 03:10:13;;;;;;;0.30;0.30;;;;;;;7.42;100.00;98187.72;5091394;28;20448;-59
2023/12/10 03:12:40;;;;;;;0.30;0.30;;;;;;;7.33;100.00;98194.50;5092706;28;20125;-59
2023/12/10 03:15:10;;;;;;;0.32;0.32;;;;;;;7.41;100.00;98182.63;5094516;28;20046;-59
2023/12/10 03:17:39;;;;;;;0.40;0.40;;;;;;;7.38;100.00;98189.25;5093340;28;20052;-58
2023/12/10 03:20:07;;;;;;;0.40;0.40;;;;;;;7.36;100.00;98191.34;5087198;28;20044;-58
2023/12/10 03:22:34;;;;;;;0.30;0.30;;;;;;;7.36;100.00;98186.00;5095428;28;20051;-58
2023/12/10 03:25:01;;;;;;;0.32;0.32;;;;;;;7.44;100.00;98185.59;5098350;28;20567;-58
2023/12/10 03:27:33;;;;;;;0.30;0.30;;;;;;;7.42;100.00;98189.56;5089274;28;20043;-58
2023/12/10 03:30:00;;;;;;;0.40;0.40;;;;;;;7.42;100.00;98187.72;5087184;28;20048;-58
2023/12/10 03:32:27;;;;;;;0.30;0.30;;;;;;;7.38;100.00;98196.44;5094776;28;20051;-58
2023/12/10 03:34:55;;;;;;;0.30;0.30;;;;;;;7.40;100.00;98203.13;5090666;28;20067;-59
2023/12/10 03:37:22;;;;;;;0.30;0.30;;;;;;;7.42;100.00;98201.03;5092869;28;20097;-57
2023/12/10 03:39:49;;;;;;;0.30;0.30;;;;;;;7.31;100.00;98204.59;5092273;28;20512;-58
2023/12/10 03:42:16;;;;;;;0.30;0.30;;;;;;;7.46;100.00;98198.66;5093510;28;20051;-58
2023/12/10 03:44:43;;;;;;;0.40;0.40;;;;;;;7.28;100.00;98202.44;5096276;28;20048;-58
2023/12/10 03:47:10;;;;;;;0.32;0.32;;;;;;;7.29;100.00;98202.22;5086905;28;20379;-58
2023/12/10 03:49:37;;;;;;;0.25;0.25;;;;;;;7.21;100.00;98212.47;5086633;28;20130;-58
2023/12/10 03:52:06;;;;;;;0.40;0.40;;;;;;;7.09;100.00;98197.41;5094179;28;20474;-58
2023/12/10 03:54:33;;;;;;;0.30;0.30;;;;;;;7.13;100.00;98205.69;5088763;28;20042;-58
2023/12/10 03:57:02;;;;;;;0.38;0.38;;;;;;;7.11;100.00;98213.97;5089296;28;20127;-58
2023/12/10 03:59:29;;;;;;;0.30;0.30;;;;;;;7.19;100.00;98209.22;5088801;28;20047;-59
2023/12/10 04:01:56;;;;;;;0.30;0.30;;;;;;;7.24;100.00;98228.78;5086418;28;20043;-59
2023/12/10 04:04:23;;;;;;;0.20;0.20;;;;;;;7.31;100.00;98228.59;5092661;28;20126;-59
2023/12/10 04:06:50;;;;;;;0.28;0.28;;;;;;;7.38;100.00;98242.56;5093644;28;20079;-58
2023/12/10 04:09:18;;;;;;;0.30;0.30;;;;;;;7.43;100.00;98237.28;5091758;28;20318;-58
2023/12/10 04:11:45;;;;;;;0.28;0.28;;;;;;;7.34;100.00;98244.91;5093725;28;20071;-58
2023/12/10 04:14:13;;;;;;;0.30;0.30;;;;;;;7.31;100.00;98244.59;5109996;27;20040;-59
2023/12/10 04:16:40;;;;;;;0.30;0.30;;;;;;;7.48;100.00;98245.38;5093592;28;20122;-58
2023/12/10 04:19:07;;;;;;;0.30;0.30;;;;;;;7.46;100.00;98250.16;5099310;28;20152;-59
2023/12/10 04:21:34;;;;;;;0.30;0.30;;;;;;;7.51;100.00;98255.56;5098161;27;20044;-58
2023/12/10 04:24:02;;;;;;;0.28;0.28;;;;;;;7.46;100.00;98244.81;5094623;28;20048;-59
2023/12/10 04:26:31;;;;;;;0.40;0.40;;;;;;;7.40;100.00;98248.47;5097895;28;20047;-58
2023/12/10 04:28:58;;;;;;;0.30;0.30;;;;;;;7.35;100.00;98251.06;5096119;28;20116;-58
2023/12/10 04:31:25;;;;;;;0.40;0.40;;;;;;;7.37;100.00;98251.63;5093681;28;20036;-58
2023/12/10 04:33:52;;;;;;;0.40;0.40;;;;;;;7.44;100.00;98257.59;5095261;28;20518;-59
2023/12/10 04:36:19;;;;;;;0.40;0.40;;;;;;;7.35;100.00;98251.84;5092907;27;20611;-59
2023/12/10 04:38:46;;;;;;;0.30;0.30;;;;;;;7.32;100.00;98268.34;5094139;28;20483;-59
2023/12/10 04:41:14;;;;;;;0.30;0.30;;;;;;;7.38;100.00;98261.22;5096785;28;20049;-59
2023/12/10 04:43:42;;;;;;;0.38;0.38;;;;;;;7.39;100.00;98259.34;5096708;28;20071;-58
2023/12/10 04:46:09;;;;;;;0.40;0.40;;;;;;;7.37;100.00;98264.94;5093362;28;20044;-59
2023/12/10 04:48:36;;;;;;;0.40;0.40;;;;;;;7.36;100.00;98268.66;5094881;28;20505;-59
2023/12/10 04:51:04;;;;;;;0.20;0.20;;;;;;;7.34;100.00;98270.78;5092994;28;20522;-59
2023/12/10 04:53:31;;;;;;;0.40;0.40;;;;;;;7.27;100.00;98262.94;5093194;28;20481;-60
2023/12/10 04:55:58;;;;;;;0.30;0.30;;;;;;;7.33;100.00;98264.63;5095304;28;20151;-59
2023/12/10 04:58:25;;;;;;;0.40;0.40;;;;;;;7.31;100.00;98279.25;5090699;28;20043;-59
2023/12/10 05:00:54;;;;;;;0.30;0.30;;;;;;;7.34;100.00;98276.13;5096384;28;20269;-59
2023/12/10 05:03:21;;;;;;;0.30;0.30;;;;;;;7.27;100.00;98276.28;5092604;28;20061;-59
2023/12/10 05:05:48;;;;;;;0.30;0.30;;;;;;;7.32;100.00;98280.88;5086561;28;20657;-59
2023/12/10 05:08:15;;;;;;;0.40;0.40;;;;;;;7.27;100.00;98281.59;5099084;28;20079;-59
2023/12/10 05:10:42;;;;;;;0.40;0.40;;;;;;;7.25;100.00;98283.69;5091719;28;20048;-59
2023/12/10 05:13:09;;;;;;;0.20;0.20;;;;;;;7.28;100.00;98279.72;5092922;28;20063;-59
2023/12/10 05:15:36;;;;;;;0.30;0.30;;;;;;;7.19;100.00;98278.53;5095594;28;20071;-59
2023/12/10 05:18:08;;;;;;;0.35;0.35;;;;;;;7.13;100.00;98275.78;5097098;28;20039;-59
2023/12/10 05:20:35;;;;;;;0.20;0.20;;;;;;;7.23;100.00;98300.97;5099468;28;20035;-59
2023/12/10 05:23:04;;;;;;;0.30;0.30;;;;;;;7.12;100.00;98306.16;5090616;28;20109;-59
2023/12/10 05:25:31;;;;;;;0.30;0.30;;;;;;;7.11;100.00;98301.88;5094888;28;20270;-60
2023/12/10 05:27:59;;;;;;;0.35;0.35;;;;;;;7.15;100.00;98320.06;5096047;28;20654;-60
2023/12/10 05:30:27;;;;;;;0.30;0.30;;;;;;;7.07;100.00;98318.59;5087512;28;20040;-59
2023/12/10 05:32:54;;;;;;;0.30;0.30;;;;;;;7.08;100.00;98322.88;5090230;28;20040;-60
2023/12/10 05:35:22;;;;;;;0.35;0.35;;;;;;;7.02;100.00;98314.00;5092876;27;20046;-59
2023/12/10 05:37:49;;;;;;;0.40;0.40;;;;;;;6.96;100.00;98314.94;5095412;28;20295;-60
2023/12/10 05:40:17;;;;;;;0.30;0.30;;;;;;;6.93;100.00;98307.44;5089648;28;20509;-59
2023/12/10 05:42:44;;;;;;;0.30;0.30;;;;;;;7.02;100.00;98316.66;5093069;27;20493;-60
2023/12/10 05:45:11;;;;;;;0.30;0.30;;;;;;;7.00;100.00;98324.06;5086790;28;20554;-59
2023/12/10 05:47:38;;;;;;;0.38;0.38;;;;;;;7.08;100.00;98323.66;5090494;28;20540;-60
2023/12/10 05:50:06;;;;;;;0.30;0.30;;;;;;;7.03;100.00;98325.44;5086498;28;20078;-59
2023/12/10 05:52:34;;;;;;;0.35;0.35;;;;;;;7.00;100.00;98328.59;5086421;28;20783;-59
2023/12/10 05:55:01;;;;;;;0.30;0.30;;;;;;;6.99;100.00;98335.78;5092754;28;20048;-59
2023/12/10 05:57:30;;;;;;;0.30;0.30;;;;;;;7.09;100.00;98332.50;5096758;28;20070;-59
2023/12/10 05:59:58;;;;;;;0.40;0.40;;;;;;;7.15;100.00;98320.84;5096487;28;20039;-59
2023/12/10 06:02:25;;;;;;;0.30;0.30;;;;;;;7.18;100.00;98335.56;5090730;28;20096;-59
2023/12/10 06:04:52;;;;;;;0.30;0.30;;;;;;;7.29;100.00;98345.34;5084829;27;20051;-59
2023/12/10 06:07:20;;;;;;;0.30;0.30;;;;;;;7.33;100.00;98330.47;5087905;28;20286;-59
2023/12/10 06:09:48;;;;;;;0.40;0.40;;;;;;;7.45;100.00;98341.84;5089494;28;20047;-59
2023/12/10 06:12:16;;;;;;;0.30;0.30;;;;;;;7.54;100.00;98350.25;5077421;28;20190;-58
2023/12/10 06:14:43;;;;;;;0.30;0.30;;;;;;;7.48;100.00;98345.88;5085153;28;20051;-58
2023/12/10 06:17:10;;;;;;;0.30;0.30;;;;;;;7.53;100.00;98349.41;5085905;28;20505;-58
2023/12/10 06:19:37;;;;;;;0.40;0.40;;;;;;;7.44;100.00;98358.91;5090285;28;20044;-58
2023/12/10 06:22:08;;;;;;;0.30;0.30;;;;;;;7.43;100.00;98359.94;5094996;28;20047;-59
2023/12/10 06:24:35;;;;;;;0.22;0.22;;;;;;;7.46;100.00;98354.13;5094460;28;20633;-58
2023/12/10 06:27:05;;;;;;;0.40;0.40;;;;;;;7.51;100.00;98364.88;5090662;28;20500;-58
2023/12/10 06:29:32;;;;;;;0.40;0.40;;;;;;;7.67;100.00;98375.78;5096533;28;20060;-58
2023/12/10 06:31:59;;;;;;;0.40;0.40;;;;;;;7.57;100.00;98376.44;5095955;28;20051;-58
2023/12/10 06:34:26;;;;;;;0.40;0.40;;;;;;;7.56;100.00;98372.97;5089943;28;20051;-59
2023/12/10 06:36:54;;;;;;;0.30;0.30;;;;;;;7.65;100.00;98378.69;5090630;28;20479;-58
2023/12/10 06:39:21;;;;;;;0.35;0.35;;;;;;;7.67;100.00;98391.78;5085594;28;20071;-59
2023/12/10 06:41:48;;;;;;;0.40;0.40;;;;;;;7.61;100.00;98387.41;5091326;28;20047;-59
2023/12/10 06:44:21;;;;;;;0.22;0.22;;;;;;;7.71;99.24;98403.56;5082578;28;20484;-58
2023/12/10 06:46:49;;;;;;;0.30;0.30;;;;;;;7.67;99.57;98413.91;5091430;28;20046;-59
2023/12/10 06:49:16;;;;;;;0.30;0.30;;;;;;;7.69;99.07;98416.34;5090151;28;20051;-59
2023/12/10 06:51:43;;;;;;;0.35;0.35;;;;;;;7.62;99.76;98426.38;5094112;28;20042;-58
2023/12/10 06:54:10;;;;;;;0.30;0.30;;;;;;;7.57;100.00;98441.22;5101054;27;20650;-59
2023/12/10 06:56:39;;;;;;;0.30;0.30;;;;;;;7.65;98.95;98425.88;5087536;28;20051;-58
2023/12/10 06:59:07;;;;;;;0.30;0.30;;;;;;;7.66;98.11;98428.31;5088101;28;20123;-58
2023/12/10 07:01:37;;;;;;;0.30;0.30;;;;;;;7.62;97.33;98435.19;5088424;28;20125;-59
2023/12/10 07:04:05;;;;;;;0.40;0.40;;;;;;;7.59;98.17;98437.50;5088124;28;20071;-58
2023/12/10 07:06:32;;;;;;;0.20;0.20;;;;;;;7.57;97.93;98459.91;5091065;28;20054;-58
2023/12/10 07:08:59;;;;;;;0.30;0.30;;;;;;;7.53;97.45;98450.75;5097621;28;20394;-58
2023/12/10 07:11:27;;;;;;;0.30;0.30;;;;;;;7.55;96.62;98448.66;5090894;28;20039;-59
2023/12/10 07:13:54;;;;;;;0.40;0.40;;;;;;;7.71;95.38;98448.91;5090301;28;20267;-58
2023/12/10 07:16:21;;;;;;;0.40;0.40;;;;;;;7.75;94.32;98463.38;5093099;28;20955;-58
2023/12/10 07:18:49;;;;;;;0.30;0.30;;;;;;;7.72;95.46;98463.88;5093344;28;20661;-57
2023/12/10 07:21:16;;;;;;;0.30;0.30;;;;;;;7.71;95.71;98463.06;5090903;28;20139;-60
2023/12/10 07:23:43;;;;;;;0.30;0.30;;;;;;;7.71;96.20;98468.41;5095162;28;20058;-58
2023/12/10 07:26:11;;;;;;;0.30;0.30;;;;;;;7.69;96.31;98469.69;5102302;27;20052;-60
2023/12/10 07:28:38;;;;;;;0.30;0.30;;;;;;;7.89;93.29;98469.22;5094555;28;20425;-60
2023/12/10 07:31:07;;;;;;;0.30;0.30;;;;;;;7.74;94.58;98461.78;5091802;28;20414;-60
2023/12/10 07:33:34;;;;;;;0.32;0.32;;;;;;;7.72;94.18;98459.34;5087508;28;20054;-60
2023/12/10 07:36:04;;;;;;;0.30;0.30;;;;;;;7.72;94.19;98469.22;5087138;28;20101;-60
2023/12/10 07:38:32;;;;;;;0.20;0.20;;;;;;;7.78;92.68;98478.91;5092325;28;20039;-59
2023/12/10 07:40:59;;;;;;;0.30;0.30;;;;;;;7.72;92.87;98490.53;5094359;28;20458;-59
2023/12/10 07:43:27;;;;;;;0.30;0.30;;;;;;;7.73;92.60;98497.50;5088862;28;20361;-59
2023/12/10 07:45:54;;;;;;;0.30;0.30;;;;;;;7.68;92.63;98492.88;5088326;28;20044;-59
2023/12/10 07:48:21;;;;;;;0.30;0.30;;;;;;;7.60;92.43;98497.81;5090210;28;20047;-60
2023/12/10 07:50:48;;;;;;;0.30;0.30;;;;;;;7.64;91.46;98501.59;5086970;28;20486;-59
2023/12/10 07:53:17;;;;;;;0.30;0.30;;;;;;;7.58;91.68;98514.03;5086132;28;20048;-59
2023/12/10 07:55:44;;;;;;;0.30;0.30;;;;;;;7.41;92.85;98510.53;5092239;28;20134;-59
2023/12/10 07:58:11;;;;;;;0.30;0.30;;;;;;;7.46;92.57;98513.28;5089685;28;20035;-59
2023/12/10 08:00:39;;;;;;;0.30;0.30;;;;;;;7.48;90.98;98522.66;5091037;28;20282;-59
2023/12/10 08:03:09;;;;;;;0.30;0.30;;;;;;;7.62;89.96;98517.03;5092052;28;20039;-60
2023/12/10 08:05:37;;;;;;;0.30;0.30;;;;;;;7.50;90.87;98536.56;5075672;28;20058;-60
2023/12/10 08:08:05;;;;;;;0.30;0.30;;;;;;;7.51;91.29;98548.88;5094691;28;20032;-60
2023/12/10 08:10:35;;;;;;;0.40;0.40;;;;;;;7.50;91.46;98549.91;5091624;28;20597;-58
2023/12/10 08:13:04;;;;;;;0.30;0.30;;;;;;;7.52;91.27;98558.47;5089369;28;20040;-58
2023/12/10 08:15:31;;;;;;;0.30;0.30;;;;;;;7.47;91.28;98552.25;5089530;28;20338;-58
2023/12/10 08:17:58;;;;;;;0.38;0.38;;;;;;;7.56;90.53;98551.63;5089787;28;20040;-58
2023/12/10 08:20:25;;;;;;;0.40;0.40;;;;;;;7.55;90.89;98547.31;5089585;28;20056;-58
2023/12/10 08:22:52;;;;;;;0.32;0.32;;;;;;;7.62;90.89;98551.72;5088512;28;20117;-60
2023/12/10 08:25:20;;;;;;;0.40;0.40;;;;;;;7.72;90.88;98560.69;5090861;28;20047;-59
2023/12/10 08:27:48;;;;;;;0.40;0.40;;;;;;;7.62;91.25;98557.06;5093116;28;20122;-57
2023/12/10 08:30:16;;;;;;;0.32;0.32;;;;;;;7.64;90.88;98546.94;5093034;28;20120;-60
2023/12/10 08:32:43;;;;;;;0.30;0.30;;;;;;;7.76;90.02;98563.69;5096841;28;20035;-59
2023/12/10 08:35:10;;;;;;;0.40;0.40;;;;;;;7.86;89.84;98569.22;5094111;28;20070;-59
2023/12/10 08:37:38;;;;;;;0.40;0.40;;;;;;;8.09;88.44;98572.81;5092616;28;20071;-59
2023/12/10 08:40:10;;;;;;;0.38;0.38;;;;;;;8.13;88.19;98576.59;5091228;28;20043;-59
2023/12/10 08:42:37;;;;;;;0.40;0.40;;;;;;;8.23;87.24;98582.09;5093127;28;20050;-59
2023/12/10 08:45:11;;;;;;;0.40;0.40;;;;;;;8.26;87.57;98592.28;5086903;28;20099;-59
2023/12/10 08:47:38;;;;;;;0.30;0.30;;;;;;;8.33;86.87;98597.47;5089251;28;20044;-59
2023/12/10 08:50:10;;;;;;;0.40;0.40;;;;;;;8.57;85.55;98598.94;5090771;28;20089;-59
2023/12/10 08:52:37;;;;;;;0.30;0.30;;;;;;;8.88;83.63;98595.88;5096880;28;20150;-59
2023/12/10 08:55:05;;;;;;;0.40;0.40;;;;;;;9.39;81.40;98609.91;5094022;28;20055;-59
2023/12/10 08:57:35;;;;;;;0.30;0.30;;;;;;;9.52;80.56;98614.88;5104798;27;20051;-59
2023/12/10 09:00:04;;;;;;;0.20;0.20;;;;;;;9.81;78.17;98617.31;5092742;28;20075;-59
2023/12/10 09:02:35;;;;;;;0.40;0.40;;;;;;;10.09;76.29;98619.75;5108587;27;20047;-59
2023/12/10 09:05:07;;;;;;;0.30;0.30;;;;;;;10.08;75.97;98607.44;5095450;28;20036;-59
2023/12/10 09:07:34;;;;;;;0.30;0.30;;;;;;;10.29;75.49;98615.66;5088830;28;20166;-59
2023/12/10 09:10:01;;;;;;;0.30;0.30;;;;;;;10.29;74.94;98613.00;5094993;28;20412;-59
2023/12/10 09:12:28;;;;;;;0.28;0.28;;;;;;;10.82;71.69;98605.84;5089415;28;20462;-59
2023/12/10 09:14:56;;;;;;;0.30;0.30;;;;;;;10.03;75.52;98620.75;5100264;28;20056;-59
2023/12/10 09:17:23;;;;;;;0.28;0.28;;;;;;;9.97;76.27;98616.41;5092225;28;20047;-59
2023/12/10 09:19:51;;;;;;;0.20;0.20;;;;;;;10.47;74.29;98620.63;5094663;28;20371;-59
2023/12/10 09:22:18;;;;;;;0.30;0.30;;;;;;;10.49;73.49;98618.50;5097893;28;20483;-61
2023/12/10 09:24:46;;;;;;;0.30;0.30;;;;;;;10.80;73.17;98624.88;5100724;28;20065;-59
2023/12/10 09:27:13;;;;;;;0.30;0.30;;;;;;;10.35;75.03;98628.03;5091552;28;20043;-59
2023/12/10 09:29:42;;;;;;;0.20;0.20;;;;;;;9.88;76.94;98624.09;5100352;28;20212;-59
2023/12/10 09:32:09;;;;;;;0.30;0.30;;;;;;;10.24;75.95;98626.31;5098404;28;20040;-59
2023/12/10 09:34:37;;;;;;;0.20;0.20;;;;;;;10.66;74.79;98639.81;5093368;28;20043;-59
2023/12/10 09:37:08;;;;;;;0.30;0.30;;;;;;;10.77;74.27;98629.94;5097369;28;20048;-60
2023/12/10 09:39:35;;;;;;;;;;;;;;;10.63;75.69;98642.97;5098013;28;20039;-58
2023/12/10 09:42:02;;;;;;;0.30;0.30;;;;;;;10.37;76.77;98636.63;5092603;28;19930;-59
2023/12/10 09:44:30;;;;;;;0.30;0.30;;;;;;;10.60;77.99;98645.38;5092908;28;20096;-59
2023/12/10 09:46:57;;;;;;;0.40;0.40;;;;;;;10.22;79.79;98657.88;5094766;28;20411;-59
2023/12/10 09:49:24;;;;;;;0.30;0.30;;;;;;;10.05;81.60;98656.09;5093507;28;20354;-58
2023/12/10 09:51:51;;;;;;;0.22;0.22;;;;;;;10.78;78.70;98651.16;5099339;28;20059;-58
2023/12/10 09:54:20;;;;;;;0.30;0.30;;;;;;;11.08;78.48;98644.34;5095855;28;20168;-59
2023/12/10 09:56:48;;;;;;;0.30;0.30;;;;;;;10.90;77.12;98656.28;5098060;28;20071;-58
2023/12/10 09:59:18;;;;;;;0.20;0.20;;;;;;;10.82;78.26;98651.44;5090033;28;20509;-59
2023/12/10 10:01:49;;;;;;;0.30;0.30;;;;;;;11.30;77.28;98649.53;5101309;28;20081;-59
2023/12/10 10:04:17;;;;;;;0.30;0.30;;;;;;;10.96;78.14;98647.22;5108040;27;20185;-59
2023/12/10 10:06:44;;;;;;;0.30;0.30;;;;;;;10.90;77.41;98655.50;5091093;27;20040;-59
2023/12/10 10:09:11;;;;;;;0.20;0.20;;;;;;;11.19;76.60;98653.25;5093184;28;20121;-59
2023/12/10 10:11:40;;;;;;;0.20;0.20;;;;;;;11.26;76.59;98656.53;5096420;28;20093;-59
2023/12/10 10:14:10;;;;;;;0.20;0.20;;;;;;;10.94;77.62;98654.72;5095976;28;20048;-58
2023/12/10 10:16:38;;;;;;;0.30;0.30;;;;;;;11.56;75.51;98663.09;5099221;28;20035;-58
2023/12/10 10:19:06;;;;;;;0.20;0.20;;;;;;;11.24;75.05;98639.88;5092915;28;20040;-58
2023/12/10 10:21:34;;;;;;;0.10;0.10;;;;;;;11.10;75.41;98655.63;5097366;28;20077;-58
2023/12/10 10:24:01;;;;;;;0.28;0.28;;;;;;;11.28;76.45;98657.03;5094818;28;20294;-59
2023/12/10 10:26:28;;;;;;;0.13;0.13;;;;;;;10.68;79.27;98658.28;5099534;28;20043;-58
2023/12/10 10:28:59;;;;;;;0.20;0.20;;;;;;;10.50;80.19;98662.97;5094181;28;20044;-58
2023/12/10 10:31:26;;;;;;;0.20;0.20;;;;;;;10.64;79.62;98673.28;5095325;28;20127;-60
2023/12/10 10:33:54;;;;;;;0.30;0.30;;;;;;;10.93;79.07;98671.88;5086495;28;20229;-59
2023/12/10 10:36:21;;;;;;;0.22;0.22;;;;;;;11.76;75.93;98657.78;5095581;28;20185;-59
2023/12/10 10:38:49;;;;;;;0.20;0.20;;;;;;;11.22;78.30;98642.81;5092720;28;20040;-58
2023/12/10 10:41:16;;;;;;;0.20;0.20;;;;;;;11.12;78.82;98650.81;5093575;28;20158;-59
2023/12/10 10:43:44;;;;;;;0.30;0.30;;;;;;;11.53;77.69;98653.69;5094495;28;20468;-58
2023/12/10 10:46:12;;;;;;;0.22;0.22;;;;;;;11.39;78.57;98642.63;5096613;28;20057;-59
2023/12/10 10:48:40;;;;;;;0.20;0.20;;;;;;;11.49;79.34;98643.75;5091189;28;20048;-59
2023/12/10 10:51:10;;;;;;;0.20;0.20;;;;;;;11.63;77.09;98652.91;5088117;28;20058;-60
2023/12/10 10:53:37;;;;;;;0.30;0.30;;;;;;;11.95;75.86;98639.34;5086717;28;20511;-59
2023/12/10 10:56:05;;;;;;;0.20;0.20;;;;;;;11.70;77.25;98629.31;5106246;27;20511;-59
2023/12/10 10:58:32;;;;;;;0.20;0.20;;;;;;;12.14;76.18;98628.09;5091341;28;20481;-58
2023/12/10 11:01:00;;;;;;;0.28;0.28;;;;;;;11.63;75.76;98610.78;5093999;28;20126;-59
2023/12/10 11:03:31;;;;;;;0.20;0.20;;;;;;;11.33;76.34;98624.06;5092090;28;20689;-59
2023/12/10 11:06:02;;;;;;;0.20;0.20;;;;;;;10.70;80.52;98622.13;5095397;28;20050;-58
2023/12/10 11:08:30;;;;;;;0.20;0.20;;;;;;;10.61;82.14;98609.47;5090830;28;20043;-59
2023/12/10 11:10:59;;;;;;;0.20;0.20;;;;;;;10.82;82.34;98600.50;5086895;28;20457;-60
2023/12/10 11:13:42;;;;;;;0.30;0.30;;;;;;;10.80;82.45;98598.06;5094873;28;20226;-59
2023/12/10 11:16:11;;;;;;;0.20;0.20;;;;;;;10.91;81.90;98592.78;5098256;28;20040;-59
2023/12/10 11:18:52;;;;;;;0.30;0.30;;;;;;;10.81;81.96;98593.53;5096151;28;20132;-59
2023/12/10 11:21:19;;;;;;;;;;;;;;;11.09;80.53;98588.84;5086695;28;20411;-58
2023/12/10 11:23:46;;;;;;;0.30;0.30;;;;;;;11.17;81.84;98607.13;5088417;28;20200;-59
2023/12/10 11:26:14;;;;;;;0.20;0.20;;;;;;;10.86;83.04;98603.44;5091885;28;20040;-58
2023/12/10 11:28:42;;;;;;;0.10;0.10;;;;;;;10.52;85.41;98595.75;5070590;28;20092;-58
2023/12/10 11:31:11;;;;;;;0.20;0.20;;;;;;;10.27;87.38;98599.00;5092287;28;20051;-58
2023/12/10 11:33:40;;;;;;;0.20;0.20;;;;;;;9.97;89.70;98586.16;5096960;27;20046;-59
2023/12/10 11:36:09;;;;;;;0.20;0.20;;;;;;;9.98;90.79;98585.91;5088564;28;20052;-59
2023/12/10 11:38:37;;;;;;;0.20;0.20;;;;;;;9.76;91.70;98606.56;5095906;28;20140;-58